sensor_id;sensor_type;location;lat;lon;timestamp;P1;durP1;ratioP1;P2;durP2;ratioP2
31770;SDS011;18343;50.152;8.182;2023-11-21T00:01:52;1.40;;;1.10;;
31770;SDS011;18343;50.152;8.182;2023-11-21T00:04:38;1.10;;;1.00;;
31770;SDS011;18343;50.152;8.182;2023-11-21T00:07:23;1.30;;;1.20;;
31770;SDS011;18343;50.152;8.182;2023-11-21T00:10:08;1.35;;;1.25;;
31770;SDS011;18343;50.152;8.182;2023-11-21T00:12:54;2.45;;;1.85;;
31770;SDS011;18343;50.152;8.182;2023-11-21T00:15:38;2.95;;;2.03;;
31770;SDS011;18343;50.152;8.182;2023-11-21T00:18:23;3.83;;;2.55;;
31770;SDS011;18343;50.152;8.182;2023-11-21T00:21:16;4.03;;;1.90;;
31770;SDS011;18343;50.152;8.182;2023-11-21T00:24:01;2.00;;;1.80;;
31770;SDS011;18343;50.152;8.182;2023-11-21T00:26:46;3.65;;;1.70;;
31770;SDS011;18343;50.152;8.182;2023-11-21T00:29:30;3.28;;;1.17;;
31770;SDS011;18343;50.152;8.182;2023-11-21T00:32:15;1.45;;;1.35;;
31770;SDS011;18343;50.152;8.182;2023-11-21T00:34:59;1.40;;;1.10;;
31770;SDS011;18343;50.152;8.182;2023-11-21T00:37:45;1.55;;;1.40;;
31770;SDS011;18343;50.152;8.182;2023-11-21T00:40:30;3.58;;;1.55;;
31770;SDS011;18343;50.152;8.182;2023-11-21T00:43:15;1.85;;;1.52;;
31770;SDS011;18343;50.152;8.182;2023-11-21T00:45:59;1.65;;;1.50;;
31770;SDS011;18343;50.152;8.182;2023-11-21T00:48:47;2.92;;;1.55;;
31770;SDS011;18343;50.152;8.182;2023-11-21T00:51:32;3.05;;;1.90;;
31770;SDS011;18343;50.152;8.182;2023-11-21T00:54:18;2.55;;;1.92;;
31770;SDS011;18343;50.152;8.182;2023-11-21T00:57:06;3.40;;;2.22;;
31770;SDS011;18343;50.152;8.182;2023-11-21T00:59:51;3.75;;;2.42;;
31770;SDS011;18343;50.152;8.182;2023-11-21T01:02:36;3.28;;;2.75;;
31770;SDS011;18343;50.152;8.182;2023-11-21T01:05:20;4.60;;;2.38;;
31770;SDS011;18343;50.152;8.182;2023-11-21T01:08:05;5.88;;;2.25;;
31770;SDS011;18343;50.152;8.182;2023-11-21T01:10:51;3.22;;;2.30;;
31770;SDS011;18343;50.152;8.182;2023-11-21T01:13:36;2.58;;;2.17;;
31770;SDS011;18343;50.152;8.182;2023-11-21T01:16:21;2.17;;;1.90;;
31770;SDS011;18343;50.152;8.182;2023-11-21T01:19:05;4.68;;;3.00;;
31770;SDS011;18343;50.152;8.182;2023-11-21T01:21:50;5.68;;;3.58;;
31770;SDS011;18343;50.152;8.182;2023-11-21T01:24:36;4.78;;;3.42;;
31770;SDS011;18343;50.152;8.182;2023-11-21T01:27:22;4.13;;;3.25;;
31770;SDS011;18343;50.152;8.182;2023-11-21T01:30:07;7.53;;;3.60;;
31770;SDS011;18343;50.152;8.182;2023-11-21T01:32:52;5.00;;;3.65;;
31770;SDS011;18343;50.152;8.182;2023-11-21T01:35:37;5.75;;;3.00;;
31770;SDS011;18343;50.152;8.182;2023-11-21T01:38:22;5.20;;;3.25;;
31770;SDS011;18343;50.152;8.182;2023-11-21T01:41:07;6.38;;;3.40;;
31770;SDS011;18343;50.152;8.182;2023-11-21T01:43:52;5.22;;;2.50;;
31770;SDS011;18343;50.152;8.182;2023-11-21T01:46:37;2.83;;;1.80;;
31770;SDS011;18343;50.152;8.182;2023-11-21T01:49:22;2.45;;;1.92;;
31770;SDS011;18343;50.152;8.182;2023-11-21T01:52:07;1.90;;;1.50;;
31770;SDS011;18343;50.152;8.182;2023-11-21T01:54:52;2.67;;;1.25;;
31770;SDS011;18343;50.152;8.182;2023-11-21T01:57:36;1.58;;;1.40;;
31770;SDS011;18343;50.152;8.182;2023-11-21T02:00:22;1.40;;;1.20;;
31770;SDS011;18343;50.152;8.182;2023-11-21T02:03:07;1.70;;;1.60;;
31770;SDS011;18343;50.152;8.182;2023-11-21T02:05:52;0.98;;;0.88;;
31770;SDS011;18343;50.152;8.182;2023-11-21T02:08:39;3.28;;;0.90;;
31770;SDS011;18343;50.152;8.182;2023-11-21T02:11:24;1.27;;;1.17;;
31770;SDS011;18343;50.152;8.182;2023-11-21T02:14:09;1.30;;;1.20;;
31770;SDS011;18343;50.152;8.182;2023-11-21T02:16:55;1.58;;;1.10;;
31770;SDS011;18343;50.152;8.182;2023-11-21T02:19:40;1.00;;;0.90;;
31770;SDS011;18343;50.152;8.182;2023-11-21T02:22:25;1.83;;;1.10;;
31770;SDS011;18343;50.152;8.182;2023-11-21T02:25:15;1.10;;;0.93;;
31770;SDS011;18343;50.152;8.182;2023-11-21T02:28:00;3.78;;;1.20;;
31770;SDS011;18343;50.152;8.182;2023-11-21T02:30:46;1.45;;;1.35;;
31770;SDS011;18343;50.152;8.182;2023-11-21T02:33:30;1.73;;;1.35;;
31770;SDS011;18343;50.152;8.182;2023-11-21T02:36:15;2.03;;;1.70;;
31770;SDS011;18343;50.152;8.182;2023-11-21T02:39:00;2.60;;;2.40;;
31770;SDS011;18343;50.152;8.182;2023-11-21T02:41:46;4.63;;;2.38;;
31770;SDS011;18343;50.152;8.182;2023-11-21T02:44:31;2.83;;;2.53;;
31770;SDS011;18343;50.152;8.182;2023-11-21T02:47:15;6.45;;;3.15;;
31770;SDS011;18343;50.152;8.182;2023-11-21T02:50:00;2.85;;;2.55;;
31770;SDS011;18343;50.152;8.182;2023-11-21T02:52:44;4.00;;;3.00;;
31770;SDS011;18343;50.152;8.182;2023-11-21T02:55:29;6.07;;;3.00;;
31770;SDS011;18343;50.152;8.182;2023-11-21T02:58:15;4.22;;;3.63;;
31770;SDS011;18343;50.152;8.182;2023-11-21T03:00:59;3.70;;;2.75;;
31770;SDS011;18343;50.152;8.182;2023-11-21T03:03:44;3.13;;;2.50;;
31770;SDS011;18343;50.152;8.182;2023-11-21T03:06:28;3.40;;;2.60;;
31770;SDS011;18343;50.152;8.182;2023-11-21T03:09:13;2.78;;;2.30;;
31770;SDS011;18343;50.152;8.182;2023-11-21T03:11:59;3.08;;;2.40;;
31770;SDS011;18343;50.152;8.182;2023-11-21T03:14:45;5.68;;;2.60;;
31770;SDS011;18343;50.152;8.182;2023-11-21T03:17:29;3.60;;;2.90;;
31770;SDS011;18343;50.152;8.182;2023-11-21T03:20:14;7.03;;;2.85;;
31770;SDS011;18343;50.152;8.182;2023-11-21T03:22:59;4.22;;;3.10;;
31770;SDS011;18343;50.152;8.182;2023-11-21T03:25:43;4.47;;;2.92;;
31770;SDS011;18343;50.152;8.182;2023-11-21T03:28:28;6.15;;;3.60;;
31770;SDS011;18343;50.152;8.182;2023-11-21T03:31:14;6.85;;;3.70;;
31770;SDS011;18343;50.152;8.182;2023-11-21T03:33:59;5.55;;;3.50;;
31770;SDS011;18343;50.152;8.182;2023-11-21T03:36:44;5.90;;;3.78;;
31770;SDS011;18343;50.152;8.182;2023-11-21T03:39:28;10.93;;;5.20;;
31770;SDS011;18343;50.152;8.182;2023-11-21T03:42:13;7.82;;;4.32;;
31770;SDS011;18343;50.152;8.182;2023-11-21T03:44:58;7.72;;;5.30;;
31770;SDS011;18343;50.152;8.182;2023-11-21T03:47:44;9.48;;;5.70;;
31770;SDS011;18343;50.152;8.182;2023-11-21T03:50:28;12.88;;;6.15;;
31770;SDS011;18343;50.152;8.182;2023-11-21T03:53:13;9.85;;;6.43;;
31770;SDS011;18343;50.152;8.182;2023-11-21T03:56:01;10.93;;;7.03;;
31770;SDS011;18343;50.152;8.182;2023-11-21T03:58:46;11.48;;;7.43;;
31770;SDS011;18343;50.152;8.182;2023-11-21T04:01:31;10.52;;;7.80;;
31770;SDS011;18343;50.152;8.182;2023-11-21T04:04:17;14.98;;;10.00;;
31770;SDS011;18343;50.152;8.182;2023-11-21T04:07:02;17.08;;;9.00;;
31770;SDS011;18343;50.152;8.182;2023-11-21T04:09:47;13.60;;;8.55;;
31770;SDS011;18343;50.152;8.182;2023-11-21T04:12:32;15.60;;;8.27;;
31770;SDS011;18343;50.152;8.182;2023-11-21T04:15:16;15.18;;;8.25;;
31770;SDS011;18343;50.152;8.182;2023-11-21T04:18:03;14.98;;;7.93;;
31770;SDS011;18343;50.152;8.182;2023-11-21T04:20:49;13.52;;;7.65;;
31770;SDS011;18343;50.152;8.182;2023-11-21T04:23:34;13.77;;;7.68;;
31770;SDS011;18343;50.152;8.182;2023-11-21T04:26:19;13.18;;;7.88;;
31770;SDS011;18343;50.152;8.182;2023-11-21T04:29:04;14.55;;;8.63;;
31770;SDS011;18343;50.152;8.182;2023-11-21T04:31:48;16.98;;;9.23;;
31770;SDS011;18343;50.152;8.182;2023-11-21T04:34:33;14.15;;;8.50;;
31770;SDS011;18343;50.152;8.182;2023-11-21T04:37:19;14.20;;;8.77;;
31770;SDS011;18343;50.152;8.182;2023-11-21T04:40:05;18.15;;;9.70;;
31770;SDS011;18343;50.152;8.182;2023-11-21T04:42:51;19.45;;;10.13;;
31770;SDS011;18343;50.152;8.182;2023-11-21T04:45:36;17.35;;;10.20;;
31770;SDS011;18343;50.152;8.182;2023-11-21T04:48:20;20.50;;;10.50;;
31770;SDS011;18343;50.152;8.182;2023-11-21T04:51:05;16.67;;;10.48;;
31770;SDS011;18343;50.152;8.182;2023-11-21T04:53:51;17.48;;;10.43;;
31770;SDS011;18343;50.152;8.182;2023-11-21T04:56:36;17.83;;;11.20;;
31770;SDS011;18343;50.152;8.182;2023-11-21T04:59:20;21.52;;;11.30;;
31770;SDS011;18343;50.152;8.182;2023-11-21T05:02:07;19.67;;;10.70;;
31770;SDS011;18343;50.152;8.182;2023-11-21T05:04:52;24.10;;;10.75;;
31770;SDS011;18343;50.152;8.182;2023-11-21T05:07:37;12.50;;;8.60;;
31770;SDS011;18343;50.152;8.182;2023-11-21T05:10:25;10.55;;;6.90;;
31770;SDS011;18343;50.152;8.182;2023-11-21T05:13:09;9.48;;;6.07;;
31770;SDS011;18343;50.152;8.182;2023-11-21T05:15:55;7.47;;;5.10;;
31770;SDS011;18343;50.152;8.182;2023-11-21T05:18:40;8.15;;;5.20;;
31770;SDS011;18343;50.152;8.182;2023-11-21T05:21:29;11.13;;;6.18;;
31770;SDS011;18343;50.152;8.182;2023-11-21T05:24:15;11.75;;;6.88;;
31770;SDS011;18343;50.152;8.182;2023-11-21T05:27:03;9.23;;;6.50;;
31770;SDS011;18343;50.152;8.182;2023-11-21T05:29:49;8.50;;;6.32;;
31770;SDS011;18343;50.152;8.182;2023-11-21T05:32:34;11.07;;;6.78;;
31770;SDS011;18343;50.152;8.182;2023-11-21T05:35:19;9.68;;;6.43;;
31770;SDS011;18343;50.152;8.182;2023-11-21T05:38:05;11.00;;;6.53;;
31770;SDS011;18343;50.152;8.182;2023-11-21T05:40:51;11.55;;;6.78;;
31770;SDS011;18343;50.152;8.182;2023-11-21T05:46:33;10.70;;;6.70;;
31770;SDS011;18343;50.152;8.182;2023-11-21T05:49:18;9.00;;;6.22;;
31770;SDS011;18343;50.152;8.182;2023-11-21T05:52:04;11.07;;;6.60;;
31770;SDS011;18343;50.152;8.182;2023-11-21T05:54:49;8.63;;;5.95;;
31770;SDS011;18343;50.152;8.182;2023-11-21T05:57:34;10.60;;;6.88;;
31770;SDS011;18343;50.152;8.182;2023-11-21T06:00:21;12.20;;;6.72;;
31770;SDS011;18343;50.152;8.182;2023-11-21T06:03:08;11.57;;;7.05;;
31770;SDS011;18343;50.152;8.182;2023-11-21T06:09:33;9.55;;;5.85;;
31770;SDS011;18343;50.152;8.182;2023-11-21T06:12:20;9.73;;;7.13;;
31770;SDS011;18343;50.152;8.182;2023-11-21T06:15:06;9.50;;;6.72;;
31770;SDS011;18343;50.152;8.182;2023-11-21T06:17:55;12.23;;;7.60;;
31770;SDS011;18343;50.152;8.182;2023-11-21T06:20:40;12.13;;;7.82;;
31770;SDS011;18343;50.152;8.182;2023-11-21T06:23:26;13.70;;;9.07;;
31770;SDS011;18343;50.152;8.182;2023-11-21T06:26:11;12.60;;;9.68;;
31770;SDS011;18343;50.152;8.182;2023-11-21T06:28:58;12.38;;;9.40;;
31770;SDS011;18343;50.152;8.182;2023-11-21T06:31:44;12.30;;;8.75;;
31770;SDS011;18343;50.152;8.182;2023-11-21T06:34:32;13.75;;;10.10;;
31770;SDS011;18343;50.152;8.182;2023-11-21T06:37:37;12.77;;;9.45;;
31770;SDS011;18343;50.152;8.182;2023-11-21T06:40:22;12.38;;;8.98;;
31770;SDS011;18343;50.152;8.182;2023-11-21T06:43:08;12.40;;;8.93;;
31770;SDS011;18343;50.152;8.182;2023-11-21T06:45:55;12.57;;;9.10;;
31770;SDS011;18343;50.152;8.182;2023-11-21T06:48:42;15.52;;;8.65;;
31770;SDS011;18343;50.152;8.182;2023-11-21T06:51:28;11.20;;;8.65;;
31770;SDS011;18343;50.152;8.182;2023-11-21T06:54:13;12.55;;;8.85;;
31770;SDS011;18343;50.152;8.182;2023-11-21T06:56:58;12.13;;;8.65;;
31770;SDS011;18343;50.152;8.182;2023-11-21T06:59:43;12.57;;;8.25;;
31770;SDS011;18343;50.152;8.182;2023-11-21T07:02:31;18.13;;;9.30;;
31770;SDS011;18343;50.152;8.182;2023-11-21T07:05:17;11.98;;;8.85;;
31770;SDS011;18343;50.152;8.182;2023-11-21T07:08:06;15.45;;;8.75;;
31770;SDS011;18343;50.152;8.182;2023-11-21T07:10:57;11.25;;;8.52;;
31770;SDS011;18343;50.152;8.182;2023-11-21T07:13:42;10.82;;;8.50;;
31770;SDS011;18343;50.152;8.182;2023-11-21T07:16:29;10.55;;;7.63;;
31770;SDS011;18343;50.152;8.182;2023-11-21T07:19:14;13.18;;;8.80;;
31770;SDS011;18343;50.152;8.182;2023-11-21T07:22:00;14.65;;;8.10;;
31770;SDS011;18343;50.152;8.182;2023-11-21T07:24:47;13.15;;;9.05;;
31770;SDS011;18343;50.152;8.182;2023-11-21T07:27:32;12.98;;;9.73;;
31770;SDS011;18343;50.152;8.182;2023-11-21T07:30:18;15.88;;;9.88;;
31770;SDS011;18343;50.152;8.182;2023-11-21T07:33:06;17.80;;;9.20;;
31770;SDS011;18343;50.152;8.182;2023-11-21T07:35:51;20.95;;;11.18;;
31770;SDS011;18343;50.152;8.182;2023-11-21T07:38:37;15.05;;;9.88;;
31770;SDS011;18343;50.152;8.182;2023-11-21T07:41:25;14.82;;;9.65;;
31770;SDS011;18343;50.152;8.182;2023-11-21T07:44:12;19.25;;;11.23;;
31770;SDS011;18343;50.152;8.182;2023-11-21T07:46:58;19.30;;;9.68;;
31770;SDS011;18343;50.152;8.182;2023-11-21T07:49:45;15.20;;;9.70;;
31770;SDS011;18343;50.152;8.182;2023-11-21T07:52:31;19.40;;;9.23;;
31770;SDS011;18343;50.152;8.182;2023-11-21T07:55:18;13.13;;;8.43;;
31770;SDS011;18343;50.152;8.182;2023-11-21T07:58:06;14.98;;;9.05;;
31770;SDS011;18343;50.152;8.182;2023-11-21T08:00:51;16.13;;;9.13;;
31770;SDS011;18343;50.152;8.182;2023-11-21T08:03:38;15.68;;;9.18;;
31770;SDS011;18343;50.152;8.182;2023-11-21T08:06:23;13.70;;;9.07;;
31770;SDS011;18343;50.152;8.182;2023-11-21T08:09:10;17.10;;;8.27;;
31770;SDS011;18343;50.152;8.182;2023-11-21T08:11:59;14.18;;;7.30;;
31770;SDS011;18343;50.152;8.182;2023-11-21T08:14:46;12.38;;;7.80;;
31770;SDS011;18343;50.152;8.182;2023-11-21T08:20:55;12.25;;;6.95;;
31770;SDS011;18343;50.152;8.182;2023-11-21T08:23:40;9.55;;;6.65;;
31770;SDS011;18343;50.152;8.182;2023-11-21T08:26:25;11.23;;;6.70;;
31770;SDS011;18343;50.152;8.182;2023-11-21T08:29:10;9.60;;;5.93;;
31770;SDS011;18343;50.152;8.182;2023-11-21T08:31:56;14.48;;;5.97;;
31770;SDS011;18343;50.152;8.182;2023-11-21T08:34:43;9.27;;;5.53;;
31770;SDS011;18343;50.152;8.182;2023-11-21T08:37:28;11.38;;;5.63;;
31770;SDS011;18343;50.152;8.182;2023-11-21T08:43:36;11.73;;;6.07;;
31770;SDS011;18343;50.152;8.182;2023-11-21T08:46:22;8.98;;;6.20;;
31770;SDS011;18343;50.152;8.182;2023-11-21T08:49:09;10.18;;;5.78;;
31770;SDS011;18343;50.152;8.182;2023-11-21T08:51:54;10.55;;;6.53;;
31770;SDS011;18343;50.152;8.182;2023-11-21T08:54:39;12.05;;;6.63;;
31770;SDS011;18343;50.152;8.182;2023-11-21T08:57:24;13.35;;;7.35;;
31770;SDS011;18343;50.152;8.182;2023-11-21T09:00:09;12.48;;;6.47;;
31770;SDS011;18343;50.152;8.182;2023-11-21T09:02:58;12.35;;;6.97;;
31770;SDS011;18343;50.152;8.182;2023-11-21T09:05:49;16.70;;;7.35;;
31770;SDS011;18343;50.152;8.182;2023-11-21T09:08:34;11.40;;;7.50;;
31770;SDS011;18343;50.152;8.182;2023-11-21T09:11:20;14.73;;;7.82;;
31770;SDS011;18343;50.152;8.182;2023-11-21T09:14:08;13.43;;;7.45;;
31770;SDS011;18343;50.152;8.182;2023-11-21T09:16:54;14.65;;;6.45;;
31770;SDS011;18343;50.152;8.182;2023-11-21T09:19:38;12.15;;;7.25;;
31770;SDS011;18343;50.152;8.182;2023-11-21T09:22:26;15.23;;;6.05;;
31770;SDS011;18343;50.152;8.182;2023-11-21T09:25:12;10.60;;;6.53;;
31770;SDS011;18343;50.152;8.182;2023-11-21T09:27:58;10.05;;;6.50;;
31770;SDS011;18343;50.152;8.182;2023-11-21T09:30:43;10.88;;;6.28;;
31770;SDS011;18343;50.152;8.182;2023-11-21T09:33:29;13.05;;;6.82;;
31770;SDS011;18343;50.152;8.182;2023-11-21T09:36:15;8.93;;;5.47;;
31770;SDS011;18343;50.152;8.182;2023-11-21T09:39:01;10.38;;;5.22;;
31770;SDS011;18343;50.152;8.182;2023-11-21T09:41:46;9.80;;;5.47;;
31770;SDS011;18343;50.152;8.182;2023-11-21T09:44:43;8.35;;;4.90;;
31770;SDS011;18343;50.152;8.182;2023-11-21T09:47:50;12.27;;;5.90;;
31770;SDS011;18343;50.152;8.182;2023-11-21T09:50:37;9.43;;;5.85;;
31770;SDS011;18343;50.152;8.182;2023-11-21T09:53:25;12.32;;;6.25;;
31770;SDS011;18343;50.152;8.182;2023-11-21T09:56:18;9.27;;;5.70;;
31770;SDS011;18343;50.152;8.182;2023-11-21T09:59:04;11.25;;;5.22;;
31770;SDS011;18343;50.152;8.182;2023-11-21T10:01:51;10.80;;;5.30;;
31770;SDS011;18343;50.152;8.182;2023-11-21T10:04:39;11.93;;;5.82;;
31770;SDS011;18343;50.152;8.182;2023-11-21T10:07:27;10.75;;;5.93;;
31770;SDS011;18343;50.152;8.182;2023-11-21T10:10:15;14.25;;;5.65;;
31770;SDS011;18343;50.152;8.182;2023-11-21T10:13:05;16.55;;;6.90;;
31770;SDS011;18343;50.152;8.182;2023-11-21T10:15:53;12.10;;;5.25;;
31770;SDS011;18343;50.152;8.182;2023-11-21T10:18:41;10.73;;;5.22;;
31770;SDS011;18343;50.152;8.182;2023-11-21T10:21:27;11.07;;;5.20;;
31770;SDS011;18343;50.152;8.182;2023-11-21T10:24:13;13.45;;;5.72;;
31770;SDS011;18343;50.152;8.182;2023-11-21T10:26:58;17.67;;;5.53;;
31770;SDS011;18343;50.152;8.182;2023-11-21T10:29:52;12.15;;;5.85;;
31770;SDS011;18343;50.152;8.182;2023-11-21T10:32:38;12.25;;;5.90;;
31770;SDS011;18343;50.152;8.182;2023-11-21T10:35:23;12.90;;;6.15;;
31770;SDS011;18343;50.152;8.182;2023-11-21T10:38:08;15.48;;;5.40;;
31770;SDS011;18343;50.152;8.182;2023-11-21T10:40:54;13.68;;;5.75;;
31770;SDS011;18343;50.152;8.182;2023-11-21T10:43:39;12.30;;;6.05;;
31770;SDS011;18343;50.152;8.182;2023-11-21T10:46:29;16.63;;;6.18;;
31770;SDS011;18343;50.152;8.182;2023-11-21T10:49:18;12.82;;;6.00;;
31770;SDS011;18343;50.152;8.182;2023-11-21T10:52:04;11.80;;;6.03;;
31770;SDS011;18343;50.152;8.182;2023-11-21T10:54:50;11.05;;;5.30;;
31770;SDS011;18343;50.152;8.182;2023-11-21T10:57:36;9.43;;;6.22;;
31770;SDS011;18343;50.152;8.182;2023-11-21T11:00:22;9.82;;;5.75;;
31770;SDS011;18343;50.152;8.182;2023-11-21T11:03:09;9.85;;;6.13;;
31770;SDS011;18343;50.152;8.182;2023-11-21T11:05:54;11.52;;;6.97;;
31770;SDS011;18343;50.152;8.182;2023-11-21T11:08:39;9.10;;;6.28;;
31770;SDS011;18343;50.152;8.182;2023-11-21T11:11:25;9.30;;;6.90;;
31770;SDS011;18343;50.152;8.182;2023-11-21T11:14:10;13.10;;;7.15;;
31770;SDS011;18343;50.152;8.182;2023-11-21T11:16:55;10.40;;;6.43;;
31770;SDS011;18343;50.152;8.182;2023-11-21T11:19:42;9.55;;;6.15;;
31770;SDS011;18343;50.152;8.182;2023-11-21T11:22:29;14.23;;;6.45;;
31770;SDS011;18343;50.152;8.182;2023-11-21T11:28:38;11.73;;;6.45;;
31770;SDS011;18343;50.152;8.182;2023-11-21T11:31:33;12.68;;;6.95;;
31770;SDS011;18343;50.152;8.182;2023-11-21T11:34:31;10.15;;;6.70;;
31770;SDS011;18343;50.152;8.182;2023-11-21T11:37:21;10.88;;;6.63;;
31770;SDS011;18343;50.152;8.182;2023-11-21T11:40:06;9.65;;;6.93;;
31770;SDS011;18343;50.152;8.182;2023-11-21T11:42:57;13.25;;;7.60;;
31770;SDS011;18343;50.152;8.182;2023-11-21T11:45:44;16.95;;;6.80;;
31770;SDS011;18343;50.152;8.182;2023-11-21T11:48:29;10.32;;;7.03;;
31770;SDS011;18343;50.152;8.182;2023-11-21T11:51:18;7.72;;;6.43;;
31770;SDS011;18343;50.152;8.182;2023-11-21T11:54:07;10.82;;;7.38;;
31770;SDS011;18343;50.152;8.182;2023-11-21T11:56:52;10.30;;;6.25;;
31770;SDS011;18343;50.152;8.182;2023-11-21T12:02:52;10.30;;;7.70;;
31770;SDS011;18343;50.152;8.182;2023-11-21T12:05:37;12.60;;;7.85;;
31770;SDS011;18343;50.152;8.182;2023-11-21T12:08:23;10.52;;;7.00;;
31770;SDS011;18343;50.152;8.182;2023-11-21T12:11:15;10.15;;;7.68;;
31770;SDS011;18343;50.152;8.182;2023-11-21T12:14:01;12.40;;;7.30;;
31770;SDS011;18343;50.152;8.182;2023-11-21T12:16:46;13.20;;;8.88;;
31770;SDS011;18343;50.152;8.182;2023-11-21T12:19:31;11.18;;;8.52;;
31770;SDS011;18343;50.152;8.182;2023-11-21T12:22:16;14.45;;;9.82;;
31770;SDS011;18343;50.152;8.182;2023-11-21T12:25:01;16.65;;;9.38;;
31770;SDS011;18343;50.152;8.182;2023-11-21T12:27:48;14.05;;;9.80;;
31770;SDS011;18343;50.152;8.182;2023-11-21T12:30:34;19.15;;;10.63;;
31770;SDS011;18343;50.152;8.182;2023-11-21T12:33:21;13.27;;;9.77;;
31770;SDS011;18343;50.152;8.182;2023-11-21T12:36:06;12.07;;;9.10;;
31770;SDS011;18343;50.152;8.182;2023-11-21T12:38:51;13.00;;;9.88;;
31770;SDS011;18343;50.152;8.182;2023-11-21T12:41:37;18.75;;;10.00;;
31770;SDS011;18343;50.152;8.182;2023-11-21T12:44:24;15.75;;;10.90;;
31770;SDS011;18343;50.152;8.182;2023-11-21T12:47:08;14.20;;;11.00;;
31770;SDS011;18343;50.152;8.182;2023-11-21T12:49:53;18.92;;;12.43;;
31770;SDS011;18343;50.152;8.182;2023-11-21T12:52:37;20.65;;;12.32;;
31770;SDS011;18343;50.152;8.182;2023-11-21T12:55:25;20.17;;;13.15;;
31770;SDS011;18343;50.152;8.182;2023-11-21T12:58:14;16.80;;;11.45;;
31770;SDS011;18343;50.152;8.182;2023-11-21T13:01:00;18.42;;;11.63;;
31770;SDS011;18343;50.152;8.182;2023-11-21T13:03:48;16.65;;;10.48;;
31770;SDS011;18343;50.152;8.182;2023-11-21T13:06:34;21.73;;;12.73;;
31770;SDS011;18343;50.152;8.182;2023-11-21T13:09:22;21.85;;;12.27;;
31770;SDS011;18343;50.152;8.182;2023-11-21T13:12:07;17.60;;;12.18;;
31770;SDS011;18343;50.152;8.182;2023-11-21T13:14:55;20.70;;;12.63;;
31770;SDS011;18343;50.152;8.182;2023-11-21T13:17:43;16.77;;;12.05;;
31770;SDS011;18343;50.152;8.182;2023-11-21T13:20:30;20.95;;;12.10;;
31770;SDS011;18343;50.152;8.182;2023-11-21T13:23:15;18.60;;;12.80;;
31770;SDS011;18343;50.152;8.182;2023-11-21T13:25:59;22.25;;;12.57;;
31770;SDS011;18343;50.152;8.182;2023-11-21T13:28:44;18.42;;;11.85;;
31770;SDS011;18343;50.152;8.182;2023-11-21T13:31:29;19.48;;;11.02;;
31770;SDS011;18343;50.152;8.182;2023-11-21T13:34:15;17.08;;;11.77;;
31770;SDS011;18343;50.152;8.182;2023-11-21T13:37:00;24.85;;;11.35;;
31770;SDS011;18343;50.152;8.182;2023-11-21T13:39:47;17.20;;;11.65;;
31770;SDS011;18343;50.152;8.182;2023-11-21T13:42:32;17.27;;;10.85;;
31770;SDS011;18343;50.152;8.182;2023-11-21T13:45:17;16.23;;;10.23;;
31770;SDS011;18343;50.152;8.182;2023-11-21T13:48:01;22.35;;;15.57;;
31770;SDS011;18343;50.152;8.182;2023-11-21T13:50:48;19.50;;;10.65;;
31770;SDS011;18343;50.152;8.182;2023-11-21T13:53:32;15.88;;;10.57;;
31770;SDS011;18343;50.152;8.182;2023-11-21T13:56:17;15.82;;;8.32;;
31770;SDS011;18343;50.152;8.182;2023-11-21T13:59:02;16.70;;;9.88;;
31770;SDS011;18343;50.152;8.182;2023-11-21T14:01:47;14.75;;;9.50;;
31770;SDS011;18343;50.152;8.182;2023-11-21T14:04:32;11.77;;;9.18;;
31770;SDS011;18343;50.152;8.182;2023-11-21T14:07:18;14.45;;;9.05;;
31770;SDS011;18343;50.152;8.182;2023-11-21T14:10:03;17.50;;;10.25;;
31770;SDS011;18343;50.152;8.182;2023-11-21T14:12:49;18.63;;;11.00;;
31770;SDS011;18343;50.152;8.182;2023-11-21T14:15:34;23.17;;;10.43;;
31770;SDS011;18343;50.152;8.182;2023-11-21T14:18:19;17.50;;;10.00;;
31770;SDS011;18343;50.152;8.182;2023-11-21T14:21:05;14.57;;;9.60;;
31770;SDS011;18343;50.152;8.182;2023-11-21T14:23:52;19.08;;;10.18;;
31770;SDS011;18343;50.152;8.182;2023-11-21T14:26:36;19.88;;;11.13;;
31770;SDS011;18343;50.152;8.182;2023-11-21T14:29:21;21.42;;;10.95;;
31770;SDS011;18343;50.152;8.182;2023-11-21T14:32:06;16.13;;;9.15;;
31770;SDS011;18343;50.152;8.182;2023-11-21T14:34:51;14.25;;;9.32;;
31770;SDS011;18343;50.152;8.182;2023-11-21T14:37:35;15.90;;;9.07;;
31770;SDS011;18343;50.152;8.182;2023-11-21T14:40:21;18.83;;;9.98;;
31770;SDS011;18343;50.152;8.182;2023-11-21T14:43:06;15.38;;;9.77;;
31770;SDS011;18343;50.152;8.182;2023-11-21T14:45:50;12.50;;;9.80;;
31770;SDS011;18343;50.152;8.182;2023-11-21T14:48:35;17.20;;;8.68;;
31770;SDS011;18343;50.152;8.182;2023-11-21T14:51:20;17.13;;;10.35;;
31770;SDS011;18343;50.152;8.182;2023-11-21T14:54:04;20.63;;;11.57;;
31770;SDS011;18343;50.152;8.182;2023-11-21T14:56:50;20.45;;;12.48;;
31770;SDS011;18343;50.152;8.182;2023-11-21T14:59:35;19.85;;;13.05;;
31770;SDS011;18343;50.152;8.182;2023-11-21T15:02:19;20.70;;;11.43;;
31770;SDS011;18343;50.152;8.182;2023-11-21T15:05:04;24.83;;;16.15;;
31770;SDS011;18343;50.152;8.182;2023-11-21T15:07:49;25.67;;;14.40;;
31770;SDS011;18343;50.152;8.182;2023-11-21T15:10:34;24.23;;;13.57;;
31770;SDS011;18343;50.152;8.182;2023-11-21T15:13:20;25.45;;;14.45;;
31770;SDS011;18343;50.152;8.182;2023-11-21T15:16:05;23.75;;;13.40;;
31770;SDS011;18343;50.152;8.182;2023-11-21T15:18:51;24.33;;;13.50;;
31770;SDS011;18343;50.152;8.182;2023-11-21T15:21:36;20.85;;;12.05;;
31770;SDS011;18343;50.152;8.182;2023-11-21T15:24:20;24.83;;;13.45;;
31770;SDS011;18343;50.152;8.182;2023-11-21T15:27:05;25.83;;;14.30;;
31770;SDS011;18343;50.152;8.182;2023-11-21T15:29:51;21.25;;;12.23;;
31770;SDS011;18343;50.152;8.182;2023-11-21T15:32:35;23.60;;;12.80;;
31770;SDS011;18343;50.152;8.182;2023-11-21T15:35:20;33.15;;;14.57;;
31770;SDS011;18343;50.152;8.182;2023-11-21T15:38:04;24.90;;;14.48;;
31770;SDS011;18343;50.152;8.182;2023-11-21T15:40:49;28.65;;;14.40;;
31770;SDS011;18343;50.152;8.182;2023-11-21T15:43:33;25.08;;;14.52;;
31770;SDS011;18343;50.152;8.182;2023-11-21T15:46:19;27.20;;;15.00;;
31770;SDS011;18343;50.152;8.182;2023-11-21T15:49:05;38.63;;;16.27;;
31770;SDS011;18343;50.152;8.182;2023-11-21T15:51:50;34.90;;;16.20;;
31770;SDS011;18343;50.152;8.182;2023-11-21T15:54:34;35.17;;;15.60;;
31770;SDS011;18343;50.152;8.182;2023-11-21T15:57:19;30.25;;;15.27;;
31770;SDS011;18343;50.152;8.182;2023-11-21T16:00:04;25.73;;;16.10;;
31770;SDS011;18343;50.152;8.182;2023-11-21T16:02:51;35.15;;;18.58;;
31770;SDS011;18343;50.152;8.182;2023-11-21T16:05:36;32.53;;;17.38;;
31770;SDS011;18343;50.152;8.182;2023-11-21T16:08:21;30.73;;;17.02;;
31770;SDS011;18343;50.152;8.182;2023-11-21T16:11:06;34.40;;;18.67;;
31770;SDS011;18343;50.152;8.182;2023-11-21T16:13:50;43.47;;;16.90;;
31770;SDS011;18343;50.152;8.182;2023-11-21T16:16:35;28.40;;;15.25;;
31770;SDS011;18343;50.152;8.182;2023-11-21T16:19:20;27.05;;;14.95;;
31770;SDS011;18343;50.152;8.182;2023-11-21T16:22:05;30.65;;;15.88;;
31770;SDS011;18343;50.152;8.182;2023-11-21T16:24:50;33.25;;;15.63;;
31770;SDS011;18343;50.152;8.182;2023-11-21T16:27:34;42.35;;;21.77;;
31770;SDS011;18343;50.152;8.182;2023-11-21T16:30:19;32.60;;;16.80;;
31770;SDS011;18343;50.152;8.182;2023-11-21T16:33:04;31.92;;;17.23;;
31770;SDS011;18343;50.152;8.182;2023-11-21T16:35:50;42.92;;;17.27;;
31770;SDS011;18343;50.152;8.182;2023-11-21T16:38:34;37.40;;;18.33;;
31770;SDS011;18343;50.152;8.182;2023-11-21T16:41:19;37.78;;;17.27;;
31770;SDS011;18343;50.152;8.182;2023-11-21T16:44:04;36.30;;;18.52;;
31770;SDS011;18343;50.152;8.182;2023-11-21T16:46:49;38.15;;;17.63;;